Latest Coastal Weather Observations for Cape Naturaliste

IDW60701

Issued at 9:22 am WST Thursday 30 June 2016 (issued every 10 minutes, with the page automatically refreshed every 10 minutes)

About coastal observations | Map of coastal stations | Coastal observations for WA | Marine services | Other Formats
Station Details ID: 009519 Name: CAPE NATURALISTE Lat: -33.54 Lon: 115.02 Height: 109.0 m
Data from the previous 72 hours. | See also: Recent months at Cape Naturaliste
Date/Time
WST
Temp
°C
Wind Pressure Rain since
9am
mm
Weather Cloud Vis
km
Sea
Height
m
Swell
Dir  Spd
kts
Gust
kts
hPa Trend Height
m
Period
s
Dir
30/09:00am 14.6 WSW 9 12 1025.9 - 2.0 - - - - - - -
30/08:30am 14.3 WSW 10 13 1025.6 - 2.0 - - - - - - -
30/08:00am 13.9 W 7 9 1025.3 - 2.0 - - - - - - -
30/07:30am 13.9 W 9 12 1025.2 - 2.0 - - - - - - -
30/07:00am 13.8 W 9 13 1024.9 - 2.0 - - - - - - -
30/06:30am 13.1 WNW 8 10 1024.7 - 2.0 - - - - - - -
30/06:00am 12.8 W 10 14 1024.3 - 2.0 - - - - - - -
30/05:30am 12.7 W 9 14 1024.2 - 2.0 - - - - - - -
30/05:00am 12.8 W 11 14 1024.2 - 2.0 - - - - - - -
30/04:30am 13.0 W 12 14 1024.0 - 2.0 - - - - - - -
30/04:00am 13.4 W 12 15 1023.9 - 2.0 - - - - - - -
30/03:30am 12.9 W 10 14 1024.1 - 2.0 - - - - - - -
30/03:00am 12.8 W 11 14 1024.2 - 2.0 - - - - - - -
30/02:30am 12.4 W 10 12 1024.3 - 2.0 - - - - - - -
30/02:00am 12.3 W 9 11 1024.2 - 2.0 - - - - - - -
30/01:30am 12.8 W 10 14 1024.1 - 2.0 - - - - - - -
30/01:00am 12.8 WSW 11 15 1024.0 - 2.0 - - - - - - -
30/12:30am 12.9 WSW 13 16 1023.9 - 2.0 - - - - - - -
30/12:00am 13.4 WSW 15 21 1023.7 - 2.0 - - - - - - -
 
Date/Time
WST
Temp
°C
Wind Pressure Rain since
9am
mm
Weather Cloud Vis
km
Sea
Height
m
Swell
Dir  Spd
kts
Gust
kts
hPa Trend Height
m
Period
s
Dir
29/11:30pm 13.3 WSW 13 17 1023.6 - 2.0 - - - - - - -
29/11:00pm 12.8 WSW 11 13 1023.5 - 2.0 - - - - - - -
29/10:30pm 12.6 WSW 11 16 1023.6 - 2.0 - - - - - - -
29/10:00pm 12.4 WSW 10 13 1023.5 - 2.0 - - - - - - -
29/09:30pm 13.2 SW 10 16 1023.4 - 2.0 - - - - - - -
29/09:00pm 13.3 SW 12 16 1023.2 - 2.0 - - - - - - -
29/08:30pm 13.2 SW 9 12 1022.9 - 2.0 - - - - - - -
29/08:00pm 11.7 SSW 7 10 1022.5 - 2.0 - - - - - - -
29/07:30pm 12.7 SW 13 17 1022.1 - 2.0 - - - - - - -
29/07:00pm 12.7 SW 12 17 1021.8 - 2.0 - - - - - - -
29/06:30pm 12.4 SW 12 15 1021.4 - 2.0 - - - - - - -
29/06:00pm 12.2 SW 15 18 1021.0 - 2.0 Recent precip. - - - - - -
29/05:30pm 12.4 SW 12 17 1020.6 - 2.0 - - - - - - -
29/05:00pm 12.4 WSW 10 14 1020.4 - 1.8 - - - - - - -
29/04:30pm 13.5 SSW 15 24 1020.1 - 1.2 - - - - - - -
29/04:00pm 16.2 SW 13 19 1019.6 - 0.0 - - - - - - -
29/03:30pm 16.5 SW 14 19 1019.3 - 0.0 - - - - - - -
29/03:00pm 17.4 SW 13 21 1018.9 - 0.0 - - - - - - -
29/02:30pm 17.0 SW 15 19 1018.6 - 0.0 - - - - - - -
29/02:00pm 17.4 SW 15 20 1018.5 - 0.0 - - - - - - -
29/01:30pm 17.3 SW 17 22 1018.4 - 0.0 - - - - - - -
29/01:00pm 16.8 SW 18 23 1018.3 - 0.0 - - - - - - -
29/12:30pm 17.0 WSW 18 23 1018.3 - 0.0 - - - - - - -
29/12:00pm 17.0 SW 18 23 1018.3 - 0.0 - - - - - - -
29/11:30am 16.8 WSW 19 24 1018.2 - 0.0 - - - - - - -
29/11:00am 16.6 SW 17 22 1018.0 - 0.0 - - - - - - -
29/10:30am 16.2 SW 17 21 1017.8 - 0.0 - - - - - - -
29/10:00am 15.8 SW 17 23 1017.6 - 0.0 - - - - - - -
29/09:30am 15.8 WSW 17 21 1017.4 - 0.0 - - - - - - -
29/09:00am 14.6 WSW 15 19 1017.0 - 1.4 - - - - - - -
29/08:30am 15.1 SW 15 20 1016.5 - 1.4 - - - - - - -
29/08:00am 14.4 SW 15 21 1016.0 - 1.4 - - - - - - -
29/07:30am 14.2 SW 14 20 1015.6 - 1.4 - - - - - - -
29/07:00am 14.4 SW 16 22 1015.2 - 1.4 - - - - - - -
29/06:30am 14.2 SW 17 26 1014.5 - 1.4 - - - - - - -
29/06:00am 14.3 SW 19 24 1013.8 - 1.4 - - - - - - -
29/05:30am 14.1 WSW 19 25 1013.4 - 1.4 - - - - - - -
29/05:00am 14.2 WSW 20 25 1013.1 - 1.4 - - - - - - -
29/04:30am 14.1 WSW 19 24 1013.0 - 1.4 - - - - - - -
29/04:00am 13.6 WSW 20 25 1012.8 - 1.4 - - - - - - -
29/03:30am 14.4 W 16 21 1012.7 - 1.2 - - - - - - -
29/03:00am 13.9 W 13 20 1012.8 - 1.2 - - - - - - -
29/02:30am 14.0 W 15 19 1012.6 - 1.2 - - - - - - -
29/02:00am 14.0 W 17 22 1012.4 - 1.2 - - - - - - -
29/01:30am 13.7 WSW 15 21 1012.2 - 1.0 - - - - - - -
29/01:00am 14.7 W 16 20 1012.2 - 1.0 - - - - - - -
29/12:30am 14.5 W 15 19 1012.3 - 1.0 - - - - - - -
29/12:00am 14.4 W 15 22 1012.4 - 1.0 - - - - - - -
 
Date/Time
WST
Temp
°C
Wind Pressure Rain since
9am
mm
Weather Cloud Vis
km
Sea
Height
m
Swell
Dir  Spd
kts
Gust
kts
hPa Trend Height
m
Period
s
Dir
28/11:30pm 14.4 W 14 18 1012.4 - 1.0 - - - - - - -
28/11:00pm 14.5 W 15 19 1012.3 - 1.0 - - - - - - -
28/10:30pm 14.4 W 14 17 1012.1 - 1.0 - - - - - - -
28/10:00pm 14.2 W 13 16 1012.2 - 1.0 - - - - - - -
28/09:30pm 14.3 W 15 18 1012.1 - 1.0 - - - - - - -
28/09:00pm 14.6 W 14 19 1012.1 - 1.0 - - - - - - -
28/08:30pm 14.4 W 13 17 1011.9 - 1.0 - - - - - - -
28/08:00pm 14.4 WSW 14 17 1011.8 - 1.0 - - - - - - -
28/07:30pm 14.5 WSW 14 17 1011.5 - 1.0 - - - - - - -
28/07:00pm 14.7 WSW 14 18 1011.4 - 1.0 - - - - - - -
28/06:30pm 14.7 WSW 14 19 1010.9 - 1.0 - - - - - - -
28/06:00pm 14.8 WSW 13 18 1010.6 - 1.0 - - - - - - -
28/05:30pm 15.0 WSW 16 21 1010.3 - 1.0 - - - - - - -
28/05:00pm 15.5 WSW 16 21 1010.1 - 1.0 - - - - - - -
28/04:30pm 16.2 W 16 21 1009.7 - 1.0 - - - - - - -
28/04:00pm 16.4 W 16 20 1009.5 - 1.0 - - - - - - -
28/03:30pm 17.3 W 16 21 1009.3 - 1.0 - - - - - - -
28/03:00pm 17.2 W 15 19 1009.1 - 1.0 Recent precip. - - - - - -
28/02:30pm 16.6 W 14 18 1009.0 - 1.0 - - - - - - -
28/02:00pm 16.7 W 14 19 1009.0 - 0.8 - - - - - - -
28/01:30pm 18.4 W 14 18 1008.9 - 0.0 - - - - - - -
28/01:00pm 18.3 W 15 20 1009.1 - 0.0 - - - - - - -
28/12:30pm 17.0 W 15 21 1009.2 - 0.0 - - - - - - -
28/12:00pm 17.2 WNW 15 20 1009.7 - 0.0 - - - - - - -
28/11:30am 17.2 WNW 16 21 1010.1 - 0.0 - - - - - - -
28/11:00am 16.7 WNW 15 19 1010.0 - 0.0 - - - - - - -
28/10:30am 16.4 NW 12 16 1010.2 - 0.0 - - - - - - -
28/10:00am 14.9 NW 15 19 1010.5 - 0.0 - - - - - - -
28/09:30am 15.0 NW 16 22 1010.5 - 0.0 - - - - - - -
28/09:00am 14.4 NW 15 19 1010.2 - 4.0 Rain - - - - - -
28/08:30am 14.2 NW 17 23 1009.8 - 3.8 - - - - - - -
28/08:00am 14.6 NW 16 22 1009.8 - 3.4 - - - - - - -
28/07:30am 15.1 NNW 16 21 1009.8 - 2.6 - - - - - - -
28/07:00am 14.8 WNW 16 20 1009.7 - 2.6 - - - - - - -
28/06:30am 14.9 NW 18 28 1009.5 - 2.6 - - - - - - -
28/06:26am 15.3 WNW 15 27 1009.5 - 2.4 - - - - - - -
28/06:00am 14.7 WNW 15 22 1009.7 - 2.4 - - - - - - -
28/05:30am 14.9 WNW 17 22 1009.5 - 2.4 - - - - - - -
28/05:00am 14.9 NW 12 19 1009.7 - 2.4 - - - - - - -
28/04:30am 14.2 NW 17 26 1009.7 - 2.4 - - - - - - -
28/04:27am 14.9 NW 16 26 1009.7 - 2.2 - - - - - - -
28/04:00am 14.3 NW 14 20 1009.9 - 2.2 - - - - - - -
28/03:30am 14.6 NNW 15 26 1010.3 - 1.2 - - - - - - -
28/03:00am 14.5 NW 17 24 1010.3 - 1.2 Rain - - - - - -
28/02:30am 15.7 N 16 21 1010.6 - 0.2 - - - - - - -
28/02:00am 15.7 N 17 22 1010.5 - 0.2 - - - - - - -
28/01:30am 15.5 N 16 21 1010.6 - 0.2 - - - - - - -
28/01:00am 15.5 N 16 22 1011.1 - 0.2 - - - - - - -
28/12:30am 15.5 N 17 21 1011.4 - 0.2 - - - - - - -
28/12:00am 15.6 N 15 20 1011.9 - 0.2 Recent precip. - - - - - -
 
Date/Time
WST
Temp
°C
Wind Pressure Rain since
9am
mm
Weather Cloud Vis
km
Sea
Height
m
Swell
Dir  Spd
kts
Gust
kts
hPa Trend Height
m
Period
s
Dir
27/11:30pm 15.8 NNW 16 21 1012.1 - 0.2 - - - - - - -
27/11:00pm 15.8 NNW 14 21 1012.5 - 0.0 - - - - - - -
27/10:30pm 15.7 N 13 19 1012.8 - 0.0 - - - - - - -
27/10:00pm 15.7 NNW 14 20 1012.9 - 0.0 - - - - - - -
27/09:30pm 15.4 NNW 15 21 1013.1 - 0.0 - - - - - - -
27/09:00pm 15.6 NNW 15 20 1013.3 - 0.0 - - - - - - -
27/08:30pm 15.1 NNW 14 19 1013.4 - 0.0 - - - - - - -
27/08:00pm 14.3 NNW 16 22 1013.5 - 0.0 - - - - - - -
27/07:30pm 15.8 N 16 20 1013.6 - 0.0 - - - - - - -
27/07:00pm 15.8 N 16 20 1013.7 - 0.0 - - - - - - -
27/06:30pm 15.5 NNW 17 22 1013.6 - 0.0 - - - - - - -
27/06:00pm 15.6 N 17 23 1013.5 - 0.0 - - - - - - -
27/05:30pm 15.4 NNW 17 22 1013.4 - 0.0 - - - - - - -
27/05:00pm 15.9 NNW 18 23 1013.4 - 0.0 - - - - - - -
27/04:30pm 15.7 NNW 18 24 1013.3 - 0.0 - - - - - - -
27/04:00pm 16.2 NNW 19 25 1013.5 - 0.0 - - - - - - -
27/03:30pm 17.2 N 19 26 1013.7 - 0.0 - - - - - - -
27/03:00pm 16.3 N 20 25 1013.8 - 0.0 - - - - - - -
27/02:30pm 17.3 N 21 30 1013.7 - 0.0 - - - - - - -
27/02:00pm 17.0 N 21 28 1014.0 - 0.0 - - - - - - -
27/01:30pm 17.4 N 23 30 1014.2 - 0.0 - - - - - - -
27/01:00pm 16.6 N 23 31 1014.5 - 0.0 - - - - - - -
27/12:30pm 16.6 N 22 29 1015.3 - 0.0 - - - - - - -
27/12:00pm 16.7 NNW 21 27 1015.8 - 0.0 - - - - - - -
27/11:30am 17.4 NNW 22 28 1016.4 - 0.0 - - - - - - -
27/11:00am 16.0 NNW 21 27 1016.9 - 0.0 - - - - - - -
27/10:46am 15.7 NNW 20 30 1017.0 - 0.0 - - - - - - -
27/10:30am 15.6 NNW 20 26 1017.1 - 0.0 - - - - - - -
27/10:01am 15.3 NNW 21 31 1017.5 - 0.0 - - - - - - -
27/10:00am 15.2 NNW 22 31 1017.4 - 0.0 - - - - - - -
27/09:40am 16.2 NNW 19 29 1017.5 - 0.0 - - - - - - -
27/09:30am 17.2 NW 19 25 1017.5 - 0.0 - - - - - - -

Other Formats:

Comma delimited format used in spreadsheet applications
http://www.bom.gov.au/fwo/IDW60701/IDW60701.94600.axf

JavaScript Object Notation format (JSON) in row-major order
http://www.bom.gov.au/fwo/IDW60701/IDW60701.94600.json